^^
Station Historical Data
Daily Summary for January 2, 2018 Units:  Metric    English   Both
« Previous Day
Next Day »
Daily Weekly Monthly Yearly Custom
  High: Low: Average:
Temperature: -17.8 °C 13.6 °C 22.3 °C
Dew Point: -17.8 °C -11.7 °C 1 °C
Humidity: Humidity% 5% 35%
Wind Speed: 0km/h 0km/h 7.1km/h
Wind Gust: 0km/h - -
Wind- - SSW
Pressure: 0 hPa 1007.7 hPa -
Precipitation: 0 mm    
Historical Graphs
 
 
Tabular Data for January 2, 2018
Time Temperature Dew Point Pressure Wind Wind Speed Wind Gust Humidity Rainfall Rate (Hourly) solar Conditions
-17.8 °C -17.8 °C 0 hPa Calm     Humidity% 0 mm SolarRadiationWatts/m^2 W/m2 Conditions
00:09 19 °C 7.7 °C 1012.4 hPa SSW 14.3 km/h 22.5 km/h 48% 0 mm 0.0 W/m2
00:14 18.9 °C 7.6 °C 1012.1 hPa SSW 14.3 km/h 20.9 km/h 48% 0 mm 0.0 W/m2
00:20 18.8 °C 7.9 °C 1012.1 hPa SSW 17.7 km/h 20.9 km/h 49% 0 mm 0.0 W/m2
00:29 18.7 °C 7.8 °C 1012.1 hPa SSW 20.9 km/h 20.9 km/h 49% 0 mm 0.0 W/m2
00:34 18.5 °C 7.9 °C 1012.1 hPa SSW 14.3 km/h 19.3 km/h 50% 0 mm 0.0 W/m2
00:39 18.4 °C 7.8 °C 1012.1 hPa SW 14.3 km/h 16.1 km/h 50% 0 mm 0.0 W/m2
00:44 18.3 °C 7.7 °C 1012.1 hPa SW 13 km/h 17.7 km/h 50% 0 mm 0.0 W/m2
00:49 18.3 °C 8 °C 1012.1 hPa SW 11.1 km/h 17.7 km/h 51% 0 mm 0.0 W/m2
00:54 18.2 °C 7.9 °C 1012.1 hPa SW 16.3 km/h 16.3 km/h 51% 0 mm 0.0 W/m2
01:00 18.2 °C 7.9 °C 1012.1 hPa SW 14.3 km/h 17.7 km/h 51% 0 mm 0.0 W/m2
01:10 18.1 °C 8.1 °C 1011.7 hPa SW 20.9 km/h 20.9 km/h 52% 0 mm 0.0 W/m2
01:20 17.9 °C 8.2 °C 1011.7 hPa SW 17.7 km/h 20.9 km/h 53% 0 mm 0.0 W/m2
01:25 17.9 °C 8.2 °C 1011.4 hPa SW 17.7 km/h 17.7 km/h 53% 0 mm 0.0 W/m2
01:30 17.8 °C 8.1 °C 1011.4 hPa SW 19.5 km/h 20.9 km/h 53% 0 mm 0.0 W/m2
01:35 17.7 °C 8 °C 1011.4 hPa SW 13 km/h 24.1 km/h 53% 0 mm 0.0 W/m2
01:40 17.7 °C 8 °C 1011.4 hPa SW 14.3 km/h 17.7 km/h 53% 0 mm 0.0 W/m2
01:45 17.6 °C 8.2 °C 1011.4 hPa SSW 14.3 km/h 17.7 km/h 54% 0 mm 0.0 W/m2
01:55 17.4 °C 8 °C 1011.4 hPa SSW 16.3 km/h 22.5 km/h 54% 0 mm 0.0 W/m2
02:00 17.4 °C 8 °C 1011.1 hPa SSW 14.3 km/h 17.7 km/h 54% 0 mm 0.0 W/m2
02:05 17.3 °C 7.9 °C 1011.1 hPa SSW 13 km/h 17.7 km/h 54% 0 mm 0.0 W/m2
02:15 17.2 °C 8.1 °C 1011.4 hPa SSW 14.3 km/h 16.1 km/h 55% 0 mm 0.0 W/m2
02:20 17.1 °C 8 °C 1011.4 hPa SW 13 km/h 14.5 km/h 55% 0 mm 0.0 W/m2
02:25 16.9 °C 7.8 °C 1011.4 hPa SW 6.4 km/h 9.7 km/h 55% 0 mm 0.0 W/m2
02:30 16.8 °C 8 °C 1011.4 hPa SW 11.1 km/h 16.1 km/h 56% 0 mm 0.0 W/m2
02:35 16.8 °C 8 °C 1011.4 hPa SW 11.1 km/h 11.3 km/h 56% 0 mm 0.0 W/m2
02:45 16.7 °C 7.9 °C 1011.1 hPa SW 6.4 km/h 11.3 km/h 56% 0 mm 0.0 W/m2
02:50 16.6 °C 7.8 °C 1011.1 hPa SW 4.7 km/h 8 km/h 56% 0 mm 0.0 W/m2
02:55 16.4 °C 7.6 °C 1011.4 hPa SW 3.2 km/h 4.8 km/h 56% 0 mm 0.0 W/m2
03:00 16.3 °C 7.5 °C 1011.4 hPa Calm   3.2 km/h 56% 0 mm 0.0 W/m2
03:06 16.2 °C 7.7 °C 1011.4 hPa Calm     57% 0 mm 0.0 W/m2
03:11 16.1 °C 7.6 °C 1011.4 hPa Calm     57% 0 mm 0.0 W/m2
03:16 16.2 °C 7.9 °C 1011.4 hPa SSW 13 km/h 14.5 km/h 58% 0 mm 0.0 W/m2
03:26 16.2 °C 7.7 °C 1011.1 hPa SSW 9.7 km/h 11.3 km/h 57% 0 mm 0.0 W/m2
03:31 16.1 °C 7.8 °C 1011.1 hPa SSW 7.9 km/h 11.3 km/h 58% 0 mm 0.0 W/m2
03:41 15.9 °C 7.6 °C 1011.1 hPa SSW 6.4 km/h 11.3 km/h 58% 0 mm 0.0 W/m2
03:47 15.8 °C 7.6 °C 1011.1 hPa SSW 11.1 km/h 11.3 km/h 58% 0 mm 0.0 W/m2
03:52 15.7 °C 7.5 °C 1011.1 hPa SSW 7.9 km/h 12.9 km/h 58% 0 mm 0.0 W/m2
03:57 15.7 °C 7.5 °C 1011.1 hPa SSW 7.9 km/h 9.7 km/h 58% 0 mm 0.0 W/m2
04:02 15.7 °C 7.7 °C 1011.1 hPa SSW 9.7 km/h 9.7 km/h 59% 0 mm 0.0 W/m2
04:12 15.4 °C 7.4 °C 1011.1 hPa SSW 6.4 km/h 8 km/h 59% 0 mm 0.0 W/m2
04:23 15 °C 7.1 °C 1011.1 hPa SSW 4.7 km/h 4.8 km/h 59% 0 mm 0.0 W/m2
04:29 14.8 °C 7.4 °C 1011.1 hPa SSW 6.4 km/h 9.7 km/h 61% 0 mm 0.0 W/m2
04:34 14.8 °C 7.4 °C 1011.1 hPa SSW 4.7 km/h 6.4 km/h 61% 0 mm 0.0 W/m2
04:39 14.7 °C 7.3 °C 1011.1 hPa SSW 4.7 km/h 8 km/h 61% 0 mm 0.0 W/m2
04:44 14.7 °C 7.5 °C 1011.1 hPa SSW 7.9 km/h 8 km/h 62% 0 mm 0.0 W/m2
04:49 14.7 °C 7.5 °C 1011.1 hPa SSW 6.4 km/h 8 km/h 62% 0 mm 0.0 W/m2
04:54 14.7 °C 7.5 °C 1011.1 hPa Calm     62% 0 mm 0.0 W/m2
05:04 14.7 °C 7.5 °C 1011.1 hPa SSW 3.2 km/h 6.4 km/h 62% 0 mm 0.0 W/m2
05:09 14.6 °C 7.4 °C 1011.4 hPa Calm     62% 0 mm 0.0 W/m2
05:19 14.4 °C 7.4 °C 1011.1 hPa Calm     63% 0 mm 0.0 W/m2
05:35 14.2 °C 7.3 °C 1011.4 hPa Calm     63% 0 mm 0.0 W/m2
05:40 14.1 °C 7.2 °C 1011.4 hPa Calm     63% 0 mm 0.0 W/m2
05:45 14 °C 7.1 °C 1011.4 hPa Calm     63% 0 mm 0.0 W/m2
05:50 13.8 °C 6.6 °C 1011.4 hPa Calm     62% 0 mm 0.0 W/m2
05:55 13.7 °C 7.2 °C 1011.7 hPa Calm     65% 0 mm 0.0 W/m2
06:00 13.6 °C 7.1 °C 1011.4 hPa Calm     65% 0 mm 5.0 W/m2
06:05 13.7 °C 7 °C 1011.7 hPa SSW 6.4 km/h 8 km/h 64% 0 mm 7.0 W/m2
06:10 13.8 °C 7.1 °C 1011.7 hPa SSW 3.2 km/h 6.4 km/h 64% 0 mm 11.0 W/m2
06:15 13.9 °C 7 °C 1011.7 hPa Calm   4.8 km/h 63% 0 mm 14.0 W/m2
06:23 13.9 °C 7.2 °C 1011.7 hPa SSW 6.4 km/h 8 km/h 64% 0 mm 18.0 W/m2
06:31 14.6 °C 7.6 °C 1012.1 hPa Calm     63% 0 mm 42.0 W/m2
06:52 15.6 °C 7.6 °C 1012.1 hPa Calm     59% 0 mm 90.0 W/m2
07:07 16.3 °C 7.8 °C 1012.4 hPa Calm     57% 0 mm 151.0 W/m2
07:21 17.1 °C 7.7 °C 1012.4 hPa SSW 6.4 km/h 9.7 km/h 54% 0 mm 218.0 W/m2
07:41 18.1 °C 7.5 °C 1012.4 hPa SSW 7.9 km/h 9.7 km/h 50% 0 mm 294.0 W/m2
07:51 18.7 °C 7.2 °C 1012.4 hPa SSW 6.4 km/h 8 km/h 47% 0 mm 330.0 W/m2
07:58 19.4 °C 6.8 °C 1012.8 hPa SSW 1.4 km/h 8 km/h 44% 0 mm 367.0 W/m2
08:05 19.7 °C 6.4 °C 1012.8 hPa Calm     42% 0 mm 385.0 W/m2
08:14 20.3 °C 6.3 °C 1012.8 hPa Calm     40% 0 mm 420.0 W/m2
12:19 29.4 °C -3 °C 1011.7 hPa Calm     12% 0 mm 1005.0 W/m2
12:25 29.3 °C -4.2 °C 1011.7 hPa Calm     11% 0 mm 1009.0 W/m2
12:30 29.4 °C -5.4 °C 1011.7 hPa Calm   3.2 km/h 10% 0 mm 1011.0 W/m2
12:36 29.4 °C -5.4 °C 1011.7 hPa ESE 6.4 km/h 6.4 km/h 10% 0 mm 1013.0 W/m2
12:49 29.7 °C -5.2 °C 1011.4 hPa Calm     10% 0 mm 1013.0 W/m2
12:54 30.1 °C -3.6 °C 1011.4 hPa Calm     11% 0 mm 1014.0 W/m2
13:04 30.3 °C -7.6 °C 1011.1 hPa Calm     8% 0 mm 1013.0 W/m2
13:20 30.8 °C -5.7 °C 1011.1 hPa Calm     9% 0 mm 1005.0 W/m2
13:35 31.4 °C -3.9 °C 1010.7 hPa Calm     10% 0 mm 995.0 W/m2
13:41 31.4 °C -3.9 °C 1010.7 hPa Calm     10% 0 mm 995.0 W/m2
13:56 31.7 °C -8.3 °C 1010.7 hPa Calm     7% 0 mm 983.0 W/m2
14:06 31.8 °C -10.2 °C 1010.4 hPa Calm   1.6 km/h 6% 0 mm 974.0 W/m2
14:12 31.8 °C -10.2 °C 1010.4 hPa Calm   1.6 km/h 6% 0 mm 974.0 W/m2
14:21 31.8 °C -8.3 °C 1010 hPa Calm   1.6 km/h 7% 0 mm 951.0 W/m2
14:37 31.7 °C -8.3 °C 1010 hPa Calm   3.2 km/h 7% 0 mm 932.0 W/m2
14:47 32.2 °C -9.9 °C 1010 hPa ESE 1.4 km/h 1.6 km/h 6% 0 mm 905.0 W/m2
14:53 32.2 °C -9.9 °C 1010 hPa ESE 1.4 km/h 1.6 km/h 6% 0 mm 905.0 W/m2
15:02 32.3 °C -9.9 °C 1009.7 hPa Calm     6% 0 mm 874.0 W/m2
15:25 32.9 °C -11.7 °C 1009.7 hPa ESE 14.3 km/h 16.1 km/h 5% 0 mm 838.0 W/m2
15:46 32.4 °C -9.8 °C 1009.4 hPa Calm     6% 0 mm 786.0 W/m2
15:57 32.8 °C -7.5 °C 1009 hPa SE 3.2 km/h 3.2 km/h 7% 0 mm 729.0 W/m2
16:06 32.8 °C -7.5 °C 1009 hPa SE 3.2 km/h 3.2 km/h 7% 0 mm 729.0 W/m2
16:18 33.6 °C -6.9 °C 1009 hPa Calm   3.2 km/h 7% 0 mm 666.0 W/m2
16:46 33.1 °C -7.3 °C 1008.7 hPa Calm     7% 0 mm 598.0 W/m2
16:53 33 °C -5.6 °C 1008.7 hPa Calm   3.2 km/h 8% 0 mm 550.0 W/m2
17:15 33.2 °C -5.5 °C 1008.4 hPa Calm   9.7 km/h 8% 0 mm 499.0 W/m2
17:27 33.3 °C -5.4 °C 1008 hPa SSE 6.4 km/h 16.1 km/h 8% 0 mm 450.0 W/m2
17:54 33.1 °C -7.3 °C 1007.7 hPa SSE 4.7 km/h 14.5 km/h 7% 0 mm 364.0 W/m2
18:04 33.2 °C -7.2 °C 1008 hPa South 16.3 km/h 17.7 km/h 7% 0 mm 309.0 W/m2
18:19 33.2 °C -9.2 °C 1008 hPa SSW 16.3 km/h 19.3 km/h 6% 0 mm 255.0 W/m2
18:49 32.6 °C -9.6 °C 1008 hPa South 3.2 km/h 17.7 km/h 6% 0 mm 128.0 W/m2
19:10 32.4 °C -9.8 °C 1008 hPa South 9.7 km/h 12.9 km/h 6% 0 mm 76.0 W/m2
19:20 32.2 °C -9.9 °C 1008.4 hPa South 9.7 km/h 17.7 km/h 6% 0 mm 16.0 W/m2
19:39 31.8 °C -10.2 °C 1008.4 hPa South 11.1 km/h 12.9 km/h 6% 0 mm 11.0 W/m2
19:48 31.4 °C -10.5 °C 1008.4 hPa South 11.1 km/h 16.1 km/h 6% 0 mm 5.0 W/m2
20:00 31.1 °C -10.7 °C 1008.4 hPa South 9.7 km/h 11.3 km/h 6% 0 mm 0.0 W/m2
20:11 30.7 °C -11 °C 1008.4 hPa South 7.9 km/h 11.3 km/h 6% 0 mm 0.0 W/m2
20:25 30.3 °C -11.3 °C 1008.7 hPa South 7.9 km/h 8 km/h 6% 0 mm 0.0 W/m2
20:30 30.2 °C -4.8 °C 1009 hPa South 14.3 km/h 19.3 km/h 10% 0 mm 0.0 W/m2
20:50 29.8 °C -3.8 °C 1009 hPa South 16.3 km/h 20.9 km/h 11% 0 mm 0.0 W/m2
20:59 29.6 °C -4 °C 1009 hPa South 14.3 km/h 19.3 km/h 11% 0 mm 0.0 W/m2
21:11 29.4 °C -4.1 °C 1009.4 hPa South 16.3 km/h 19.3 km/h 11% 0 mm 0.0 W/m2
21:21 29.1 °C -3.2 °C 1009.4 hPa South 14.3 km/h 19.3 km/h 12% 0 mm 0.0 W/m2
21:31 28.8 °C -3.4 °C 1009.4 hPa South 13 km/h 19.3 km/h 12% 0 mm 0.0 W/m2
21:51 28.3 °C -3.8 °C 1009.7 hPa South 13 km/h 13 km/h 12% 0 mm 0.0 W/m2
22:01 27.7 °C -4.3 °C 1009.7 hPa South 6.4 km/h 8 km/h 12% 0 mm 0.0 W/m2
22:22 27.6 °C -6.8 °C 1010 hPa SSE 16.3 km/h 22.5 km/h 10% 0 mm 0.0 W/m2
22:36 28.1 °C -7.8 °C 1010.4 hPa SSE 13 km/h 14.5 km/h 9% 0 mm 0.0 W/m2
22:47 27.8 °C -8 °C 1010.4 hPa SSE 9.7 km/h 12.9 km/h 9% 0 mm 0.0 W/m2
23:02 27.4 °C -6.9 °C 1010.4 hPa SSE 7.9 km/h 11.3 km/h 10% 0 mm 0.0 W/m2
23:17 27.1 °C -7.1 °C 1010.4 hPa SSE 9.7 km/h 12.9 km/h 10% 0 mm 0.0 W/m2
23:31 26.8 °C -7.4 °C 1010.7 hPa SSE 11.1 km/h 14.5 km/h 10% 0 mm 0.0 W/m2
23:37 26.6 °C -6.3 °C 1010.4 hPa SSE 9.7 km/h 14.5 km/h 11% 0 mm 0.0 W/m2
23:52 26.5 °C -6.4 °C 1010.4 hPa SSE 19.5 km/h 19.5 km/h 11% 0 mm 0.0 W/m2
Canyon Roadhouse, Fishriver Canyon, Namibia
Compliments of Weather Underground - 2.25 mb